Aérodrome :
LOGIN :

S'inscrire | Disclaimer

   EN    FR    IT 

 










Légende :    VFR   VFR Marginal   IFR   IFR Intensif   IFR Très Intensif
Visi : 
Plafond : 
>= 8 km
>= 3000ft
5 à 8 km
1000 à 3000 ft
1500m à 5 km
500 à 1000 ft
800 à 1500m
200 à 500 ft
< 800m
< 200 ft
Symboles :   Orages  Brouillard  Fortes neiges  Fortes précipitations  Vent > 20 kt
SIGMETs :   Divers  Orages  Givrage  Turbulence  Onde Orograph.  Cendres Volcan.







- Altitude de l'aérodrome : 306 ft
- Code IATA : EMA
- Voir les cartes d'approche


EGNX - Nottingham East Midlands

DERNIER METAR :
  • 231750Z 27020KT 9999 BKN011 11/10 Q1029

METARs EXPIRÉS :
  • 231720Z 27018KT 9999 BKN011 11/10 Q1029
  • 231650Z 27018KT 9999 BKN011 11/10 Q1029
  • 231620Z 27016KT 9999 BKN013 12/10 Q1029
  • 231550Z 28016KT 9999 BKN015 12/10 Q1029
  • 231520Z 28017KT 9999 BKN013 12/09 Q1028

TAF TAF EGNX
Valide du 23 à 18h jusqu'au 24 à 18h UTC


231704Z 2318/2418 29015KT 9999 BKN011
TEMPO 2318/2410 BKN008
PROB30
TEMPO 2318/2324 30015G25KT
PROB30
TEMPO 2323/2404 8000 -DZ BKN004
BECMG 2409/2412 SCT015
ATIS : +44 1332 852 852 (ext 3201)
Pas de NOTAMs connus pour ce terrain.
2 SIGMETs publiés pour la FIR London (EGTT) :
 
Turbulence forte
EGTT SIGMET 08 VALID 231400/231800 EGRR
EGTT LONDON FIR SEV TURB FCST WI N5400 W00200 - N5500 W00300 - N5500 E00500 - N5400 E00409 - N5400 W00200 SFC/FL060 STNR WKN=
Onde orographique forte
EGTT SIGMET 07 VALID 231400/231800 EGRR
EGTT LONDON FIR SEV MTW FCST WI N5500 E00100 - N5400 E00045 - N5400 W00245 - N5500 W00530 - N5500 E00100 FL030/220 STNR NC=



MET'MAP, la Météo Aéronautique d'un coup d'oeil ! - Copyright ORBIFLY Décembre 2007 - Disclaimer

ORBIFLY MET'MAP TEAM :

Programmation & Développement : Alexandra Zaïnal
Conception & Développement : Baudouin d'Aumeries
Co-Programmation & Développement : Marc-Olivier Méhu
Soutien technique & logistique : Manuel Goepfert

Contact : metmap@orbifly.com




SOURCES & CREDITS :

   NOAA